Domov               UVHVVR             MKGP            O straneh              
ZDRAVSTVENO VARSTVO RASTLIN
  MREŽA AGROMET. POSTAJ
 ► PROGNOSTIČNA OBVESTILA
AGROMETEOROLOŠKI PODATKI -
ARSO
OBVLADOVANJE TVEGANJ ZARADI
NEUGODNIH VREMENSKIH RAZMER
  ► NARAVNE NESREČE
  ► SUŠA/MOČA
  ► NAMAKANJE
  ► ŽLED (gozdarstvo)
KARTOGRAFSKI PRIKAZI
SPLETNE POVEZAVE
PROJEKTI IN PUBLIKACIJE

AGROMETEOROLOŠKA MREŽA: VREMENSKE POSTAJE IN FENOLOŠKA OPAZOVANJA

Pregled podatkov za lokacijo Zimica, meteorološka postaja 27472

Pregled senzorjev na lokaciji

ID Ime Zadnja
vrednost
Datum
zadnje
spremembe
Tip
senzorja
1712 Omočenost lista (U) 0 U 19.8.2017 19:30 A730WET
1713 Temperatura 2 m ( °C) 17,61 °C 19.8.2017 19:30 Generic -40 - +60 °C
1714 Relativna vlaga 2 m (% RH) 75,9 % RH 19.8.2017 19:30 Generic 0 - 100 %
1715 Padavine 0.2 mm (mm) 0 mm 19.8.2017 19:30 Generic 0.2 mm

Pregled podatkov zadnjih 24 ur

Zap.
št.
Datum in čas Zimica
Omočenost
lista
Padavine
0.2
mm
Relativna
vlaga
2
m
Temperatura
2
m
0 19.8.2017 18:30 0 0 75,9 17,61
1 19.8.2017 18:00 0 0 69,18 18,19
2 19.8.2017 17:30 0 0 71,14 18,83
3 19.8.2017 17:00 0 0 75,46 19,07
4 19.8.2017 16:30 0 0,2 74,87 19,1
5 19.8.2017 16:00 0 0 74,09 19,56
6 19.8.2017 15:30 0 0 74,09 19,71
7 19.8.2017 15:00 0 0,2 78,83 19,93
8 19.8.2017 14:30 0 0 80,39 19,8
9 19.8.2017 14:00 0 0,2 77,48 20,85
10 19.8.2017 13:30 0 0 68,03 22,05
11 19.8.2017 13:00 0 0 60,81 23,35
12 19.8.2017 12:30 0 0 54,6 23,64
13 19.8.2017 12:00 0 0 57,9 23,52
14 19.8.2017 11:30 0 0 55,38 24,15
15 19.8.2017 11:00 0 0 57,56 23,71
16 19.8.2017 10:30 0 0 59,49 23,35
17 19.8.2017 10:00 0 0 60,12 23,57
18 19.8.2017 09:30 0 0 57,41 23,25
19 19.8.2017 09:00 0 0 57,24 23,39
20 19.8.2017 08:30 0 0 52,33 23,93
21 19.8.2017 08:00 0 0 55,21 23,57
22 19.8.2017 07:30 0 0 54,26 23,83
23 19.8.2017 07:00 0 0 65,84 21,76
24 19.8.2017 06:30 0 0 66,28 20,32
25 19.8.2017 06:00 0 0 78,14 17,97
26 19.8.2017 05:30 0 0 79,71 18,24
27 19.8.2017 05:00 0 0 73,77 19,05
28 19.8.2017 04:30 0 0 73,53 19,68
29 19.8.2017 04:00 0 0 66,5 19,71
30 19.8.2017 03:30 0 0 77,9 16,87
31 19.8.2017 03:00 0 0 82,76 16,31
32 19.8.2017 02:30 0 0 88,3 16,51
33 19.8.2017 02:00 0 0 84,27 16,8
34 19.8.2017 01:30 0 0 84,76 17,66
35 19.8.2017 01:00 0 0 75,43 17,83
36 19.8.2017 00:30 0 0 83,93 17,29
37 19.8.2017 00:00 0 0 84,03 17,39
38 18.8.2017 23:30 0 0 84,32 17,75
39 18.8.2017 23:00 0 0 80,98 17,97
40 18.8.2017 22:30 0 0 81 18,32
41 18.8.2017 22:00 0 0 76,97 19,05
42 18.8.2017 21:30 0 0 75,9 19,88
43 18.8.2017 21:00 0 0 67,06 21,1
© 2011 Ministrstvo za kmetijstvo, gozdarstvo in prehrano. Vse pravice pridržane.